sensor_id;sensor_type;location;lat;lon;timestamp;P1;durP1;ratioP1;P2;durP2;ratioP2
62014;SDS011;47970;52.396;9.586;2022-07-29T00:01:58;3.23;;;1.00;;
62014;SDS011;47970;52.396;9.586;2022-07-29T00:04:24;4.20;;;1.13;;
62014;SDS011;47970;52.396;9.586;2022-07-29T00:06:49;4.33;;;0.87;;
62014;SDS011;47970;52.396;9.586;2022-07-29T00:09:14;5.43;;;1.20;;
62014;SDS011;47970;52.396;9.586;2022-07-29T00:11:39;3.20;;;1.00;;
62014;SDS011;47970;52.396;9.586;2022-07-29T00:14:04;1.80;;;0.80;;
62014;SDS011;47970;52.396;9.586;2022-07-29T00:16:30;5.20;;;0.93;;
62014;SDS011;47970;52.396;9.586;2022-07-29T00:18:55;3.63;;;0.77;;
62014;SDS011;47970;52.396;9.586;2022-07-29T00:21:20;6.97;;;1.40;;
62014;SDS011;47970;52.396;9.586;2022-07-29T00:23:45;3.77;;;1.00;;
62014;SDS011;47970;52.396;9.586;2022-07-29T00:26:11;4.27;;;0.97;;
62014;SDS011;47970;52.396;9.586;2022-07-29T00:28:36;3.57;;;0.93;;
62014;SDS011;47970;52.396;9.586;2022-07-29T00:31:01;4.70;;;1.10;;
62014;SDS011;47970;52.396;9.586;2022-07-29T00:33:26;2.27;;;0.80;;
62014;SDS011;47970;52.396;9.586;2022-07-29T00:35:51;3.20;;;1.10;;
62014;SDS011;47970;52.396;9.586;2022-07-29T00:38:18;6.65;;;1.20;;
62014;SDS011;47970;52.396;9.586;2022-07-29T00:40:43;3.78;;;0.85;;
62014;SDS011;47970;52.396;9.586;2022-07-29T00:43:09;3.67;;;1.00;;
62014;SDS011;47970;52.396;9.586;2022-07-29T00:45:34;2.92;;;0.80;;
62014;SDS011;47970;52.396;9.586;2022-07-29T00:47:59;3.95;;;1.13;;
62014;SDS011;47970;52.396;9.586;2022-07-29T00:50:25;2.80;;;0.82;;
62014;SDS011;47970;52.396;9.586;2022-07-29T00:52:50;6.45;;;1.10;;
62014;SDS011;47970;52.396;9.586;2022-07-29T00:55:16;2.08;;;0.80;;
62014;SDS011;47970;52.396;9.586;2022-07-29T00:57:42;3.30;;;1.00;;
62014;SDS011;47970;52.396;9.586;2022-07-29T01:00:09;1.98;;;1.30;;
62014;SDS011;47970;52.396;9.586;2022-07-29T01:02:35;1.95;;;0.90;;
62014;SDS011;47970;52.396;9.586;2022-07-29T01:05:01;4.97;;;1.40;;
62014;SDS011;47970;52.396;9.586;2022-07-29T01:07:26;1.85;;;0.95;;
62014;SDS011;47970;52.396;9.586;2022-07-29T01:09:52;3.33;;;1.02;;
62014;SDS011;47970;52.396;9.586;2022-07-29T01:12:19;7.03;;;0.98;;
62014;SDS011;47970;52.396;9.586;2022-07-29T01:14:45;4.50;;;1.30;;
62014;SDS011;47970;52.396;9.586;2022-07-29T01:17:18;5.25;;;1.10;;
62014;SDS011;47970;52.396;9.586;2022-07-29T01:27:45;4.43;;;1.00;;
62014;SDS011;47970;52.396;9.586;2022-07-29T01:30:13;1.45;;;0.77;;
62014;SDS011;47970;52.396;9.586;2022-07-29T01:32:39;3.70;;;0.90;;
62014;SDS011;47970;52.396;9.586;2022-07-29T01:35:07;2.38;;;0.85;;
62014;SDS011;47970;52.396;9.586;2022-07-29T01:40:19;6.68;;;1.88;;
62014;SDS011;47970;52.396;9.586;2022-07-29T01:42:54;3.33;;;1.00;;
62014;SDS011;47970;52.396;9.586;2022-07-29T01:50:34;4.57;;;1.00;;
62014;SDS011;47970;52.396;9.586;2022-07-29T01:53:02;4.28;;;1.10;;
62014;SDS011;47970;52.396;9.586;2022-07-29T01:55:29;3.70;;;1.60;;
62014;SDS011;47970;52.396;9.586;2022-07-29T01:57:56;3.55;;;0.90;;
62014;SDS011;47970;52.396;9.586;2022-07-29T02:00:22;5.78;;;1.10;;
62014;SDS011;47970;52.396;9.586;2022-07-29T02:02:48;3.35;;;0.90;;
62014;SDS011;47970;52.396;9.586;2022-07-29T02:05:15;6.03;;;1.13;;
62014;SDS011;47970;52.396;9.586;2022-07-29T02:07:41;3.75;;;0.77;;
62014;SDS011;47970;52.396;9.586;2022-07-29T02:10:07;3.10;;;0.88;;
62014;SDS011;47970;52.396;9.586;2022-07-29T02:12:33;3.35;;;1.10;;
62014;SDS011;47970;52.396;9.586;2022-07-29T02:15:00;3.17;;;1.10;;
62014;SDS011;47970;52.396;9.586;2022-07-29T02:17:28;4.95;;;1.13;;
62014;SDS011;47970;52.396;9.586;2022-07-29T02:19:55;2.70;;;1.00;;
62014;SDS011;47970;52.396;9.586;2022-07-29T02:22:21;5.05;;;1.08;;
62014;SDS011;47970;52.396;9.586;2022-07-29T02:24:48;2.20;;;1.00;;
62014;SDS011;47970;52.396;9.586;2022-07-29T02:27:15;5.55;;;1.30;;
62014;SDS011;47970;52.396;9.586;2022-07-29T02:29:42;2.75;;;1.13;;
62014;SDS011;47970;52.396;9.586;2022-07-29T02:32:08;6.70;;;1.30;;
62014;SDS011;47970;52.396;9.586;2022-07-29T02:34:35;3.20;;;1.13;;
62014;SDS011;47970;52.396;9.586;2022-07-29T02:37:01;6.55;;;1.25;;
62014;SDS011;47970;52.396;9.586;2022-07-29T02:39:27;4.72;;;1.10;;
62014;SDS011;47970;52.396;9.586;2022-07-29T02:42:07;3.63;;;1.05;;
62014;SDS011;47970;52.396;9.586;2022-07-29T02:47:16;4.25;;;1.08;;
62014;SDS011;47970;52.396;9.586;2022-07-29T02:50:04;2.97;;;1.15;;
62014;SDS011;47970;52.396;9.586;2022-07-29T02:55:11;2.28;;;0.82;;
62014;SDS011;47970;52.396;9.586;2022-07-29T02:57:59;2.22;;;1.02;;
62014;SDS011;47970;52.396;9.586;2022-07-29T03:00:27;3.90;;;1.30;;
62014;SDS011;47970;52.396;9.586;2022-07-29T03:02:53;4.13;;;0.90;;
62014;SDS011;47970;52.396;9.586;2022-07-29T03:05:20;7.88;;;1.10;;
62014;SDS011;47970;52.396;9.586;2022-07-29T03:07:46;5.22;;;1.13;;
62014;SDS011;47970;52.396;9.586;2022-07-29T03:10:12;3.42;;;0.80;;
62014;SDS011;47970;52.396;9.586;2022-07-29T03:12:38;5.97;;;1.25;;
62014;SDS011;47970;52.396;9.586;2022-07-29T03:15:03;3.13;;;1.08;;
62014;SDS011;47970;52.396;9.586;2022-07-29T03:17:29;4.60;;;1.15;;
62014;SDS011;47970;52.396;9.586;2022-07-29T03:19:55;6.43;;;1.08;;
62014;SDS011;47970;52.396;9.586;2022-07-29T03:22:20;4.35;;;1.20;;
62014;SDS011;47970;52.396;9.586;2022-07-29T03:24:46;2.58;;;1.10;;
62014;SDS011;47970;52.396;9.586;2022-07-29T03:27:11;4.63;;;1.35;;
62014;SDS011;47970;52.396;9.586;2022-07-29T03:29:36;4.47;;;1.10;;
62014;SDS011;47970;52.396;9.586;2022-07-29T03:32:05;6.90;;;1.20;;
62014;SDS011;47970;52.396;9.586;2022-07-29T03:34:30;4.78;;;1.20;;
62014;SDS011;47970;52.396;9.586;2022-07-29T03:36:55;4.30;;;1.27;;
62014;SDS011;47970;52.396;9.586;2022-07-29T03:39:21;3.63;;;1.10;;
62014;SDS011;47970;52.396;9.586;2022-07-29T03:41:48;3.92;;;1.27;;
62014;SDS011;47970;52.396;9.586;2022-07-29T03:44:14;6.00;;;1.45;;
62014;SDS011;47970;52.396;9.586;2022-07-29T03:46:41;3.80;;;1.40;;
62014;SDS011;47970;52.396;9.586;2022-07-29T03:49:06;2.38;;;1.02;;
62014;SDS011;47970;52.396;9.586;2022-07-29T03:51:33;3.80;;;1.25;;
62014;SDS011;47970;52.396;9.586;2022-07-29T03:53:59;4.97;;;1.25;;
62014;SDS011;47970;52.396;9.586;2022-07-29T03:56:24;2.35;;;0.98;;
62014;SDS011;47970;52.396;9.586;2022-07-29T03:58:50;2.22;;;1.00;;
62014;SDS011;47970;52.396;9.586;2022-07-29T04:01:16;4.68;;;1.13;;
62014;SDS011;47970;52.396;9.586;2022-07-29T04:03:43;4.55;;;1.40;;
62014;SDS011;47970;52.396;9.586;2022-07-29T04:06:10;2.17;;;1.05;;
62014;SDS011;47970;52.396;9.586;2022-07-29T04:08:35;4.03;;;1.33;;
62014;SDS011;47970;52.396;9.586;2022-07-29T04:11:01;4.90;;;1.20;;
62014;SDS011;47970;52.396;9.586;2022-07-29T04:13:26;5.38;;;1.05;;
62014;SDS011;47970;52.396;9.586;2022-07-29T04:15:51;3.87;;;1.20;;
62014;SDS011;47970;52.396;9.586;2022-07-29T04:18:17;4.73;;;1.30;;
62014;SDS011;47970;52.396;9.586;2022-07-29T04:20:42;2.93;;;1.10;;
62014;SDS011;47970;52.396;9.586;2022-07-29T04:23:07;5.78;;;1.35;;
62014;SDS011;47970;52.396;9.586;2022-07-29T04:25:32;5.40;;;1.30;;
62014;SDS011;47970;52.396;9.586;2022-07-29T04:27:58;6.50;;;1.20;;
62014;SDS011;47970;52.396;9.586;2022-07-29T04:30:26;6.35;;;1.08;;
62014;SDS011;47970;52.396;9.586;2022-07-29T04:32:51;5.15;;;1.45;;
62014;SDS011;47970;52.396;9.586;2022-07-29T04:35:17;8.23;;;1.27;;
62014;SDS011;47970;52.396;9.586;2022-07-29T04:37:42;6.72;;;1.30;;
62014;SDS011;47970;52.396;9.586;2022-07-29T04:40:08;4.37;;;1.33;;
62014;SDS011;47970;52.396;9.586;2022-07-29T04:42:33;5.00;;;1.33;;
62014;SDS011;47970;52.396;9.586;2022-07-29T04:44:58;3.00;;;1.40;;
62014;SDS011;47970;52.396;9.586;2022-07-29T04:47:23;5.27;;;1.73;;
62014;SDS011;47970;52.396;9.586;2022-07-29T04:49:49;2.67;;;1.47;;
62014;SDS011;47970;52.396;9.586;2022-07-29T04:52:14;9.30;;;1.57;;
62014;SDS011;47970;52.396;9.586;2022-07-29T04:54:39;5.45;;;1.40;;
62014;SDS011;47970;52.396;9.586;2022-07-29T04:57:04;3.93;;;1.30;;
62014;SDS011;47970;52.396;9.586;2022-07-29T04:59:29;3.03;;;1.23;;
62014;SDS011;47970;52.396;9.586;2022-07-29T05:01:55;7.80;;;1.20;;
62014;SDS011;47970;52.396;9.586;2022-07-29T05:04:20;8.27;;;1.30;;
62014;SDS011;47970;52.396;9.586;2022-07-29T05:06:45;10.13;;;1.40;;
62014;SDS011;47970;52.396;9.586;2022-07-29T05:09:10;2.90;;;1.20;;
62014;SDS011;47970;52.396;9.586;2022-07-29T05:11:36;6.87;;;1.50;;
62014;SDS011;47970;52.396;9.586;2022-07-29T05:14:01;4.03;;;1.53;;
62014;SDS011;47970;52.396;9.586;2022-07-29T05:16:26;2.70;;;1.03;;
62014;SDS011;47970;52.396;9.586;2022-07-29T05:18:51;4.97;;;1.42;;
62014;SDS011;47970;52.396;9.586;2022-07-29T05:21:17;4.83;;;1.40;;
62014;SDS011;47970;52.396;9.586;2022-07-29T05:23:42;4.87;;;1.37;;
62014;SDS011;47970;52.396;9.586;2022-07-29T05:26:07;3.20;;;1.47;;
62014;SDS011;47970;52.396;9.586;2022-07-29T05:28:33;2.73;;;1.20;;
62014;SDS011;47970;52.396;9.586;2022-07-29T05:30:58;4.43;;;1.30;;
62014;SDS011;47970;52.396;9.586;2022-07-29T05:33:23;6.27;;;1.57;;
62014;SDS011;47970;52.396;9.586;2022-07-29T05:35:49;5.45;;;1.52;;
62014;SDS011;47970;52.396;9.586;2022-07-29T05:38:14;3.93;;;1.40;;
62014;SDS011;47970;52.396;9.586;2022-07-29T05:40:39;3.57;;;1.17;;
62014;SDS011;47970;52.396;9.586;2022-07-29T05:43:04;3.70;;;1.60;;
62014;SDS011;47970;52.396;9.586;2022-07-29T05:45:29;2.67;;;1.20;;
62014;SDS011;47970;52.396;9.586;2022-07-29T05:47:55;5.28;;;1.52;;
62014;SDS011;47970;52.396;9.586;2022-07-29T05:50:20;16.70;;;1.63;;
62014;SDS011;47970;52.396;9.586;2022-07-29T05:52:45;5.40;;;1.40;;
62014;SDS011;47970;52.396;9.586;2022-07-29T05:55:10;6.47;;;1.50;;
62014;SDS011;47970;52.396;9.586;2022-07-29T05:57:36;6.35;;;1.60;;
62014;SDS011;47970;52.396;9.586;2022-07-29T06:00:01;9.80;;;1.90;;
62014;SDS011;47970;52.396;9.586;2022-07-29T06:02:26;12.52;;;1.67;;
62014;SDS011;47970;52.396;9.586;2022-07-29T06:04:52;4.83;;;1.40;;
62014;SDS011;47970;52.396;9.586;2022-07-29T06:07:17;4.97;;;1.20;;
62014;SDS011;47970;52.396;9.586;2022-07-29T06:09:42;4.53;;;1.30;;
62014;SDS011;47970;52.396;9.586;2022-07-29T06:12:07;3.30;;;1.40;;
62014;SDS011;47970;52.396;9.586;2022-07-29T06:14:33;4.00;;;1.20;;
62014;SDS011;47970;52.396;9.586;2022-07-29T06:16:58;6.60;;;1.83;;
62014;SDS011;47970;52.396;9.586;2022-07-29T06:19:23;6.20;;;1.50;;
62014;SDS011;47970;52.396;9.586;2022-07-29T06:21:49;10.93;;;1.63;;
62014;SDS011;47970;52.396;9.586;2022-07-29T06:24:14;6.53;;;1.40;;
62014;SDS011;47970;52.396;9.586;2022-07-29T06:26:40;10.70;;;1.92;;
62014;SDS011;47970;52.396;9.586;2022-07-29T06:29:06;4.30;;;1.77;;
62014;SDS011;47970;52.396;9.586;2022-07-29T06:31:31;5.90;;;1.67;;
62014;SDS011;47970;52.396;9.586;2022-07-29T06:33:56;5.55;;;1.50;;
62014;SDS011;47970;52.396;9.586;2022-07-29T06:36:22;3.27;;;1.83;;
62014;SDS011;47970;52.396;9.586;2022-07-29T06:38:47;5.63;;;1.67;;
62014;SDS011;47970;52.396;9.586;2022-07-29T06:41:12;10.37;;;1.60;;
62014;SDS011;47970;52.396;9.586;2022-07-29T06:43:41;4.47;;;1.50;;
62014;SDS011;47970;52.396;9.586;2022-07-29T06:46:07;6.90;;;1.60;;
62014;SDS011;47970;52.396;9.586;2022-07-29T06:48:33;6.80;;;1.48;;
62014;SDS011;47970;52.396;9.586;2022-07-29T06:50:59;6.28;;;1.65;;
62014;SDS011;47970;52.396;9.586;2022-07-29T06:53:24;7.90;;;1.50;;
62014;SDS011;47970;52.396;9.586;2022-07-29T06:55:50;4.50;;;1.73;;
62014;SDS011;47970;52.396;9.586;2022-07-29T06:58:15;10.27;;;2.05;;
62014;SDS011;47970;52.396;9.586;2022-07-29T07:00:43;3.67;;;1.50;;
62014;SDS011;47970;52.396;9.586;2022-07-29T07:03:08;12.20;;;1.60;;
62014;SDS011;47970;52.396;9.586;2022-07-29T07:05:33;6.07;;;1.60;;
62014;SDS011;47970;52.396;9.586;2022-07-29T07:07:58;3.77;;;1.23;;
62014;SDS011;47970;52.396;9.586;2022-07-29T07:10:23;6.33;;;2.10;;
62014;SDS011;47970;52.396;9.586;2022-07-29T07:12:49;6.53;;;1.63;;
62014;SDS011;47970;52.396;9.586;2022-07-29T07:15:14;4.80;;;1.67;;
62014;SDS011;47970;52.396;9.586;2022-07-29T07:17:39;7.78;;;1.60;;
62014;SDS011;47970;52.396;9.586;2022-07-29T07:20:05;9.57;;;2.13;;
62014;SDS011;47970;52.396;9.586;2022-07-29T07:22:31;7.80;;;1.48;;
62014;SDS011;47970;52.396;9.586;2022-07-29T07:24:56;6.43;;;2.45;;
62014;SDS011;47970;52.396;9.586;2022-07-29T07:27:21;5.43;;;1.63;;
62014;SDS011;47970;52.396;9.586;2022-07-29T07:29:46;5.75;;;1.50;;
62014;SDS011;47970;52.396;9.586;2022-07-29T07:32:12;4.30;;;1.77;;
62014;SDS011;47970;52.396;9.586;2022-07-29T07:34:38;8.88;;;1.85;;
62014;SDS011;47970;52.396;9.586;2022-07-29T07:37:03;15.27;;;2.10;;
62014;SDS011;47970;52.396;9.586;2022-07-29T07:39:28;4.45;;;1.58;;
62014;SDS011;47970;52.396;9.586;2022-07-29T07:41:54;3.15;;;1.38;;
62014;SDS011;47970;52.396;9.586;2022-07-29T07:44:19;7.43;;;1.80;;
62014;SDS011;47970;52.396;9.586;2022-07-29T07:46:44;4.53;;;1.70;;
62014;SDS011;47970;52.396;9.586;2022-07-29T07:49:10;8.40;;;1.95;;
62014;SDS011;47970;52.396;9.586;2022-07-29T07:51:35;4.93;;;1.80;;
62014;SDS011;47970;52.396;9.586;2022-07-29T07:54:00;6.43;;;1.70;;
62014;SDS011;47970;52.396;9.586;2022-07-29T07:56:26;3.30;;;1.37;;
62014;SDS011;47970;52.396;9.586;2022-07-29T07:58:51;10.75;;;1.80;;
62014;SDS011;47970;52.396;9.586;2022-07-29T08:01:16;5.43;;;1.80;;
62014;SDS011;47970;52.396;9.586;2022-07-29T08:03:43;3.80;;;1.50;;
62014;SDS011;47970;52.396;9.586;2022-07-29T08:06:09;5.45;;;1.70;;
62014;SDS011;47970;52.396;9.586;2022-07-29T08:08:34;4.60;;;1.53;;
62014;SDS011;47970;52.396;9.586;2022-07-29T08:10:59;8.40;;;1.53;;
62014;SDS011;47970;52.396;9.586;2022-07-29T08:13:27;8.07;;;2.35;;
62014;SDS011;47970;52.396;9.586;2022-07-29T08:15:53;5.00;;;2.25;;
62014;SDS011;47970;52.396;9.586;2022-07-29T08:18:36;3.10;;;1.48;;
62014;SDS011;47970;52.396;9.586;2022-07-29T08:21:01;6.13;;;1.70;;
62014;SDS011;47970;52.396;9.586;2022-07-29T08:23:26;6.93;;;1.80;;
62014;SDS011;47970;52.396;9.586;2022-07-29T08:25:59;5.28;;;1.90;;
62014;SDS011;47970;52.396;9.586;2022-07-29T08:28:25;2.67;;;1.50;;
62014;SDS011;47970;52.396;9.586;2022-07-29T08:30:50;3.83;;;1.53;;
62014;SDS011;47970;52.396;9.586;2022-07-29T08:33:15;12.53;;;1.80;;
62014;SDS011;47970;52.396;9.586;2022-07-29T08:35:40;4.30;;;1.60;;
62014;SDS011;47970;52.396;9.586;2022-07-29T08:38:06;6.85;;;1.90;;
62014;SDS011;47970;52.396;9.586;2022-07-29T08:40:31;9.97;;;1.93;;
62014;SDS011;47970;52.396;9.586;2022-07-29T08:42:56;8.20;;;2.05;;
62014;SDS011;47970;52.396;9.586;2022-07-29T08:45:22;7.13;;;1.90;;
62014;SDS011;47970;52.396;9.586;2022-07-29T08:47:48;5.88;;;1.77;;
62014;SDS011;47970;52.396;9.586;2022-07-29T08:50:13;11.93;;;2.00;;
62014;SDS011;47970;52.396;9.586;2022-07-29T08:52:39;7.90;;;1.83;;
62014;SDS011;47970;52.396;9.586;2022-07-29T08:55:05;10.40;;;1.95;;
62014;SDS011;47970;52.396;9.586;2022-07-29T08:57:30;14.80;;;2.75;;
62014;SDS011;47970;52.396;9.586;2022-07-29T08:59:57;5.40;;;1.85;;
62014;SDS011;47970;52.396;9.586;2022-07-29T09:02:24;5.50;;;1.58;;
62014;SDS011;47970;52.396;9.586;2022-07-29T09:04:52;3.40;;;1.63;;
62014;SDS011;47970;52.396;9.586;2022-07-29T09:07:18;7.00;;;2.70;;
62014;SDS011;47970;52.396;9.586;2022-07-29T09:09:44;8.25;;;2.15;;
62014;SDS011;47970;52.396;9.586;2022-07-29T09:12:09;5.72;;;2.30;;
62014;SDS011;47970;52.396;9.586;2022-07-29T09:14:36;7.03;;;2.03;;
62014;SDS011;47970;52.396;9.586;2022-07-29T09:17:02;4.15;;;1.90;;
62014;SDS011;47970;52.396;9.586;2022-07-29T09:19:29;8.53;;;2.00;;
62014;SDS011;47970;52.396;9.586;2022-07-29T09:21:55;5.47;;;1.90;;
62014;SDS011;47970;52.396;9.586;2022-07-29T09:26:49;3.58;;;1.70;;
62014;SDS011;47970;52.396;9.586;2022-07-29T09:29:23;4.90;;;1.80;;
62014;SDS011;47970;52.396;9.586;2022-07-29T09:31:52;8.25;;;1.90;;
62014;SDS011;47970;52.396;9.586;2022-07-29T09:34:22;4.97;;;1.83;;
62014;SDS011;47970;52.396;9.586;2022-07-29T09:36:48;7.65;;;2.08;;
62014;SDS011;47970;52.396;9.586;2022-07-29T09:39:14;7.93;;;2.05;;
62014;SDS011;47970;52.396;9.586;2022-07-29T09:41:47;9.63;;;2.15;;
62014;SDS011;47970;52.396;9.586;2022-07-29T09:44:12;4.78;;;1.98;;
62014;SDS011;47970;52.396;9.586;2022-07-29T09:46:39;5.47;;;1.65;;
62014;SDS011;47970;52.396;9.586;2022-07-29T09:49:10;6.60;;;1.95;;
62014;SDS011;47970;52.396;9.586;2022-07-29T09:51:36;6.28;;;2.28;;
62014;SDS011;47970;52.396;9.586;2022-07-29T09:54:01;7.38;;;1.85;;
62014;SDS011;47970;52.396;9.586;2022-07-29T09:56:39;11.75;;;2.05;;
62014;SDS011;47970;52.396;9.586;2022-07-29T09:59:08;8.77;;;2.00;;
62014;SDS011;47970;52.396;9.586;2022-07-29T10:01:33;6.70;;;2.10;;
62014;SDS011;47970;52.396;9.586;2022-07-29T10:03:59;5.72;;;2.00;;
62014;SDS011;47970;52.396;9.586;2022-07-29T10:06:25;16.38;;;2.55;;
62014;SDS011;47970;52.396;9.586;2022-07-29T10:08:50;12.25;;;2.05;;
62014;SDS011;47970;52.396;9.586;2022-07-29T10:11:18;5.82;;;2.10;;
62014;SDS011;47970;52.396;9.586;2022-07-29T10:13:44;11.30;;;2.00;;
62014;SDS011;47970;52.396;9.586;2022-07-29T10:16:10;9.02;;;1.90;;
62014;SDS011;47970;52.396;9.586;2022-07-29T10:18:37;7.30;;;1.73;;
62014;SDS011;47970;52.396;9.586;2022-07-29T10:21:03;5.15;;;1.75;;
62014;SDS011;47970;52.396;9.586;2022-07-29T10:23:29;6.22;;;2.05;;
62014;SDS011;47970;52.396;9.586;2022-07-29T10:25:54;13.23;;;2.30;;
62014;SDS011;47970;52.396;9.586;2022-07-29T10:28:19;8.27;;;1.90;;
62014;SDS011;47970;52.396;9.586;2022-07-29T10:30:45;10.05;;;2.00;;
62014;SDS011;47970;52.396;9.586;2022-07-29T10:43:33;6.43;;;2.35;;
62014;SDS011;47970;52.396;9.586;2022-07-29T10:46:01;7.68;;;2.10;;
62014;SDS011;47970;52.396;9.586;2022-07-29T10:48:26;10.85;;;1.90;;
62014;SDS011;47970;52.396;9.586;2022-07-29T10:51:01;7.82;;;1.77;;
62014;SDS011;47970;52.396;9.586;2022-07-29T10:53:49;10.05;;;2.10;;
62014;SDS011;47970;52.396;9.586;2022-07-29T10:56:28;10.45;;;1.70;;
62014;SDS011;47970;52.396;9.586;2022-07-29T11:01:38;8.65;;;2.17;;
62014;SDS011;47970;52.396;9.586;2022-07-29T11:04:03;8.93;;;2.33;;
62014;SDS011;47970;52.396;9.586;2022-07-29T11:09:19;5.70;;;2.20;;
62014;SDS011;47970;52.396;9.586;2022-07-29T11:11:45;4.72;;;1.77;;
62014;SDS011;47970;52.396;9.586;2022-07-29T11:14:10;5.97;;;2.00;;
62014;SDS011;47970;52.396;9.586;2022-07-29T11:19:20;7.75;;;2.10;;
62014;SDS011;47970;52.396;9.586;2022-07-29T11:21:45;5.45;;;1.90;;
62014;SDS011;47970;52.396;9.586;2022-07-29T11:24:25;6.50;;;2.00;;
62014;SDS011;47970;52.396;9.586;2022-07-29T11:29:38;4.20;;;1.80;;
62014;SDS011;47970;52.396;9.586;2022-07-29T11:32:12;12.40;;;2.38;;
62014;SDS011;47970;52.396;9.586;2022-07-29T11:34:38;6.03;;;1.90;;
62014;SDS011;47970;52.396;9.586;2022-07-29T11:44:55;9.95;;;2.45;;
62014;SDS011;47970;52.396;9.586;2022-07-29T11:47:24;10.35;;;1.73;;
62014;SDS011;47970;52.396;9.586;2022-07-29T11:49:49;7.40;;;2.20;;
62014;SDS011;47970;52.396;9.586;2022-07-29T11:52:16;4.78;;;1.95;;
62014;SDS011;47970;52.396;9.586;2022-07-29T11:54:42;9.03;;;1.87;;
62014;SDS011;47970;52.396;9.586;2022-07-29T11:57:07;5.35;;;2.10;;
62014;SDS011;47970;52.396;9.586;2022-07-29T11:59:38;8.35;;;2.00;;
62014;SDS011;47970;52.396;9.586;2022-07-29T12:02:03;9.57;;;2.30;;
62014;SDS011;47970;52.396;9.586;2022-07-29T12:04:29;7.60;;;2.00;;
62014;SDS011;47970;52.396;9.586;2022-07-29T12:06:55;5.53;;;1.90;;
62014;SDS011;47970;52.396;9.586;2022-07-29T12:09:21;15.60;;;2.40;;
62014;SDS011;47970;52.396;9.586;2022-07-29T12:11:47;7.60;;;2.20;;
62014;SDS011;47970;52.396;9.586;2022-07-29T12:14:28;8.52;;;1.90;;
62014;SDS011;47970;52.396;9.586;2022-07-29T12:16:53;8.10;;;2.00;;
62014;SDS011;47970;52.396;9.586;2022-07-29T12:19:18;8.32;;;2.10;;
62014;SDS011;47970;52.396;9.586;2022-07-29T12:21:51;19.70;;;2.60;;
62014;SDS011;47970;52.396;9.586;2022-07-29T12:24:16;9.40;;;1.98;;
62014;SDS011;47970;52.396;9.586;2022-07-29T12:26:51;7.03;;;2.00;;
62014;SDS011;47970;52.396;9.586;2022-07-29T12:29:17;4.20;;;1.80;;
62014;SDS011;47970;52.396;9.586;2022-07-29T12:31:42;5.93;;;2.00;;
62014;SDS011;47970;52.396;9.586;2022-07-29T12:34:09;7.00;;;2.22;;
62014;SDS011;47970;52.396;9.586;2022-07-29T12:36:34;9.10;;;2.17;;
62014;SDS011;47970;52.396;9.586;2022-07-29T12:38:59;9.25;;;1.80;;
62014;SDS011;47970;52.396;9.586;2022-07-29T12:41:27;13.52;;;1.92;;
62014;SDS011;47970;52.396;9.586;2022-07-29T12:43:52;6.78;;;1.90;;
62014;SDS011;47970;52.396;9.586;2022-07-29T12:46:18;5.65;;;1.60;;
62014;SDS011;47970;52.396;9.586;2022-07-29T12:48:43;9.50;;;1.93;;
62014;SDS011;47970;52.396;9.586;2022-07-29T12:51:09;5.82;;;1.95;;
62014;SDS011;47970;52.396;9.586;2022-07-29T12:53:36;8.65;;;2.30;;
62014;SDS011;47970;52.396;9.586;2022-07-29T12:56:02;8.95;;;2.25;;
62014;SDS011;47970;52.396;9.586;2022-07-29T13:01:00;4.90;;;2.10;;
62014;SDS011;47970;52.396;9.586;2022-07-29T13:03:25;5.50;;;1.90;;
62014;SDS011;47970;52.396;9.586;2022-07-29T13:05:51;4.88;;;1.75;;
62014;SDS011;47970;52.396;9.586;2022-07-29T13:08:17;4.60;;;2.10;;
62014;SDS011;47970;52.396;9.586;2022-07-29T13:10:43;6.13;;;1.60;;
62014;SDS011;47970;52.396;9.586;2022-07-29T13:13:15;5.80;;;2.10;;
62014;SDS011;47970;52.396;9.586;2022-07-29T13:15:44;10.88;;;2.00;;
62014;SDS011;47970;52.396;9.586;2022-07-29T13:18:28;8.23;;;1.80;;
62014;SDS011;47970;52.396;9.586;2022-07-29T13:20:54;5.32;;;2.08;;
62014;SDS011;47970;52.396;9.586;2022-07-29T13:23:19;7.07;;;2.10;;
62014;SDS011;47970;52.396;9.586;2022-07-29T13:25:45;7.63;;;2.10;;
62014;SDS011;47970;52.396;9.586;2022-07-29T13:28:10;6.03;;;2.10;;
62014;SDS011;47970;52.396;9.586;2022-07-29T13:30:36;7.78;;;1.90;;
62014;SDS011;47970;52.396;9.586;2022-07-29T13:33:02;9.05;;;2.83;;
62014;SDS011;47970;52.396;9.586;2022-07-29T13:35:27;6.13;;;3.10;;
62014;SDS011;47970;52.396;9.586;2022-07-29T13:37:54;8.75;;;3.25;;
62014;SDS011;47970;52.396;9.586;2022-07-29T13:40:19;5.83;;;2.40;;
62014;SDS011;47970;52.396;9.586;2022-07-29T13:42:45;10.10;;;2.55;;
62014;SDS011;47970;52.396;9.586;2022-07-29T13:45:10;5.13;;;2.10;;
62014;SDS011;47970;52.396;9.586;2022-07-29T13:47:36;4.65;;;1.73;;
62014;SDS011;47970;52.396;9.586;2022-07-29T13:50:01;7.28;;;1.90;;
62014;SDS011;47970;52.396;9.586;2022-07-29T13:52:27;7.85;;;2.00;;
62014;SDS011;47970;52.396;9.586;2022-07-29T13:54:52;11.23;;;2.42;;
62014;SDS011;47970;52.396;9.586;2022-07-29T13:57:17;6.07;;;2.10;;
62014;SDS011;47970;52.396;9.586;2022-07-29T13:59:43;5.67;;;2.17;;
62014;SDS011;47970;52.396;9.586;2022-07-29T14:02:09;12.27;;;2.33;;
62014;SDS011;47970;52.396;9.586;2022-07-29T14:04:34;7.28;;;2.30;;
62014;SDS011;47970;52.396;9.586;2022-07-29T14:07:00;7.65;;;2.13;;
62014;SDS011;47970;52.396;9.586;2022-07-29T14:09:25;9.23;;;2.40;;
62014;SDS011;47970;52.396;9.586;2022-07-29T14:11:51;12.45;;;2.17;;
62014;SDS011;47970;52.396;9.586;2022-07-29T14:14:17;11.95;;;2.40;;
62014;SDS011;47970;52.396;9.586;2022-07-29T14:16:42;6.23;;;2.17;;
62014;SDS011;47970;52.396;9.586;2022-07-29T14:19:08;12.40;;;2.50;;
62014;SDS011;47970;52.396;9.586;2022-07-29T14:21:33;7.57;;;2.53;;
62014;SDS011;47970;52.396;9.586;2022-07-29T14:23:59;7.07;;;2.50;;
62014;SDS011;47970;52.396;9.586;2022-07-29T14:26:24;7.27;;;2.70;;
62014;SDS011;47970;52.396;9.586;2022-07-29T14:28:49;9.30;;;3.07;;
62014;SDS011;47970;52.396;9.586;2022-07-29T14:31:15;5.00;;;2.40;;
62014;SDS011;47970;52.396;9.586;2022-07-29T14:33:40;8.05;;;2.67;;
62014;SDS011;47970;52.396;9.586;2022-07-29T14:36:06;10.93;;;2.67;;
62014;SDS011;47970;52.396;9.586;2022-07-29T14:38:31;8.37;;;2.63;;
62014;SDS011;47970;52.396;9.586;2022-07-29T14:40:56;7.30;;;2.33;;
62014;SDS011;47970;52.396;9.586;2022-07-29T14:43:21;4.87;;;2.13;;
62014;SDS011;47970;52.396;9.586;2022-07-29T14:45:46;4.67;;;2.30;;
62014;SDS011;47970;52.396;9.586;2022-07-29T14:48:12;6.67;;;2.57;;
62014;SDS011;47970;52.396;9.586;2022-07-29T14:50:37;5.57;;;2.30;;
62014;SDS011;47970;52.396;9.586;2022-07-29T14:53:02;10.90;;;2.47;;
62014;SDS011;47970;52.396;9.586;2022-07-29T14:55:27;8.13;;;2.47;;
62014;SDS011;47970;52.396;9.586;2022-07-29T14:57:53;9.70;;;2.50;;
62014;SDS011;47970;52.396;9.586;2022-07-29T15:00:19;10.50;;;2.90;;
62014;SDS011;47970;52.396;9.586;2022-07-29T15:02:45;6.43;;;2.50;;
62014;SDS011;47970;52.396;9.586;2022-07-29T15:05:11;13.70;;;3.17;;
62014;SDS011;47970;52.396;9.586;2022-07-29T15:07:36;6.87;;;2.47;;
62014;SDS011;47970;52.396;9.586;2022-07-29T15:10:01;6.23;;;2.33;;
62014;SDS011;47970;52.396;9.586;2022-07-29T15:12:27;12.70;;;2.67;;
62014;SDS011;47970;52.396;9.586;2022-07-29T15:14:52;10.93;;;2.37;;
62014;SDS011;47970;52.396;9.586;2022-07-29T15:17:18;6.03;;;2.50;;
62014;SDS011;47970;52.396;9.586;2022-07-29T15:19:43;8.82;;;2.42;;
62014;SDS011;47970;52.396;9.586;2022-07-29T15:22:08;7.67;;;2.33;;
62014;SDS011;47970;52.396;9.586;2022-07-29T15:24:34;7.80;;;2.53;;
62014;SDS011;47970;52.396;9.586;2022-07-29T15:26:59;4.60;;;2.23;;
62014;SDS011;47970;52.396;9.586;2022-07-29T15:29:24;6.27;;;2.13;;
62014;SDS011;47970;52.396;9.586;2022-07-29T15:31:49;13.07;;;2.33;;
62014;SDS011;47970;52.396;9.586;2022-07-29T15:34:15;7.50;;;2.20;;
62014;SDS011;47970;52.396;9.586;2022-07-29T15:36:40;12.97;;;2.57;;